Time;durP1;ratioP1;P1;durP2;ratioP2;P2;SDS_P1;SDS_P2;PMS_P1;PMS_P2;Temp;Humidity;BMP_temperature;BMP_pressure;BME280_temperature;BME280_humidity;BME280_pressure;Samples;Min_cycle;Max_cycle;Signal;HPM_P1;HPM_P2
2024/01/07 00:01:15;;;;;;;8.47;6.00;;;7.10;99.90;;;;;;4968186;28;20482;-64
2024/01/07 00:03:42;;;;;;;11.57;7.33;;;7.10;99.90;;;;;;4937893;28;20487;-64
2024/01/07 00:06:09;;;;;;;7.43;5.27;;;;;;;;;;4966072;28;20487;-64
2024/01/07 00:08:38;;;;;;;18.10;6.20;;;7.10;99.90;;;;;;4964161;28;20581;-66
2024/01/07 00:11:05;;;;;;;11.50;6.50;;;7.10;99.90;;;;;;4964871;28;20495;-66
2024/01/07 00:13:31;;;;;;;15.87;6.40;;;7.00;99.90;;;;;;4957798;28;20591;-66
2024/01/07 00:15:58;;;;;;;6.87;4.30;;;7.00;99.90;;;;;;4968547;28;21208;-66
2024/01/07 00:18:26;;;;;;;11.17;4.47;;;7.00;99.90;;;;;;4982395;28;20477;-66
2024/01/07 00:20:53;;;;;;;13.80;5.10;;;6.90;99.90;;;;;;4977252;28;20626;-66
2024/01/07 00:23:20;;;;;;;8.60;4.77;;;6.80;99.90;;;;;;4977773;28;20552;-67
2024/01/07 00:25:49;;;;;;;9.00;4.97;;;6.90;99.90;;;;;;4965800;28;20843;-66
2024/01/07 00:28:16;;;;;;;8.03;5.10;;;6.80;99.90;;;;;;4972340;28;21087;-65
2024/01/07 00:30:42;;;;;;;7.47;5.50;;;6.80;99.90;;;;;;4972122;28;20825;-66
2024/01/07 00:33:09;;;;;;;7.70;4.30;;;6.80;99.90;;;;;;4967743;28;20541;-66
2024/01/07 00:35:36;;;;;;;5.83;4.63;;;6.70;99.90;;;;;;4965460;28;20525;-66
2024/01/07 00:38:03;;;;;;;4.50;3.50;;;6.70;99.90;;;;;;5002974;28;20477;-67
2024/01/07 00:40:30;;;;;;;6.10;4.80;;;6.70;99.90;;;;;;4979391;28;20607;-66
2024/01/07 00:42:58;;;;;;;13.37;4.73;;;6.70;99.90;;;;;;4985720;28;20891;-66
2024/01/07 00:45:25;;;;;;;5.60;4.37;;;6.60;99.90;;;;;;4959089;28;20534;-66
2024/01/07 00:47:54;;;;;;;32.03;6.17;;;;;;;;;;4984840;28;20539;-67
2024/01/07 00:50:21;;;;;;;5.63;5.00;;;6.60;99.90;;;;;;4961094;28;20472;-65
2024/01/07 00:52:48;;;;;;;4.90;4.43;;;6.60;99.90;;;;;;4955007;28;20836;-66
2024/01/07 00:55:15;;;;;;;7.40;3.80;;;6.70;99.90;;;;;;4966947;28;20826;-66
2024/01/07 00:57:42;;;;;;;26.37;5.93;;;6.70;99.90;;;;;;4985006;28;20570;-66
2024/01/07 01:00:11;;;;;;;6.60;5.13;;;6.70;99.90;;;;;;4952054;28;20485;-66
2024/01/07 01:02:38;;;;;;;5.50;5.00;;;6.70;99.90;;;;;;4966137;28;21283;-66
2024/01/07 01:05:06;;;;;;;5.77;4.50;;;6.80;99.90;;;;;;4919263;28;20487;-66
2024/01/07 01:07:33;;;;;;;9.17;5.57;;;6.70;99.90;;;;;;4974716;28;20502;-68
2024/01/07 01:10:00;;;;;;;10.23;5.53;;;6.70;99.90;;;;;;4969061;28;20564;-68
2024/01/07 01:12:27;;;;;;;6.33;5.17;;;6.70;99.90;;;;;;4971054;28;21295;-66
2024/01/07 01:14:54;;;;;;;5.30;4.80;;;6.60;99.90;;;;;;4975941;28;20497;-66
2024/01/07 01:17:22;;;;;;;15.53;6.37;;;6.60;99.90;;;;;;4970891;28;20541;-65
2024/01/07 01:19:50;;;;;;;9.50;6.30;;;;;;;;;;4982276;28;21012;-63
2024/01/07 01:22:17;;;;;;;41.67;7.97;;;6.60;99.90;;;;;;4958569;28;20481;-63
2024/01/07 01:24:45;;;;;;;9.77;6.47;;;6.60;99.90;;;;;;4981244;28;20655;-63
2024/01/07 01:27:13;;;;;;;11.73;8.07;;;6.60;99.90;;;;;;4968806;28;20473;-63
2024/01/07 01:29:40;;;;;;;19.83;8.83;;;6.60;99.90;;;;;;4977175;28;20483;-63
2024/01/07 01:32:07;;;;;;;35.03;7.53;;;6.50;99.90;;;;;;4996905;28;20489;-63
2024/01/07 01:34:35;;;;;;;9.93;6.63;;;6.50;99.90;;;;;;4968375;28;20483;-64
2024/01/07 01:37:02;;;;;;;10.60;7.60;;;6.50;99.90;;;;;;4981897;28;21036;-62
2024/01/07 01:39:29;;;;;;;10.57;7.97;;;6.50;99.90;;;;;;4994185;28;20501;-66
2024/01/07 01:41:58;;;;;;;14.77;7.13;;;6.40;99.90;;;;;;4965321;28;20532;-66
2024/01/07 01:44:27;;;;;;;10.17;6.83;;;6.40;99.90;;;;;;4986700;28;20485;-66
2024/01/07 01:46:54;;;;;;;9.13;7.30;;;6.40;99.90;;;;;;4974339;28;20488;-66
2024/01/07 01:49:21;;;;;;;9.40;6.23;;;6.50;99.90;;;;;;4985777;28;20554;-67
2024/01/07 01:51:50;;;;;;;22.10;8.93;;;6.40;99.90;;;;;;4987678;28;20482;-66
2024/01/07 01:54:17;;;;;;;9.60;7.30;;;6.50;99.90;;;;;;4961506;28;20501;-66
2024/01/07 01:56:44;;;;;;;24.70;9.90;;;6.40;99.90;;;;;;4988963;28;21063;-67
2024/01/07 01:59:12;;;;;;;14.80;10.67;;;6.50;99.90;;;;;;4981374;28;20791;-66
2024/01/07 02:01:40;;;;;;;15.40;7.20;;;6.50;99.90;;;;;;4973825;28;20490;-66
2024/01/07 02:04:07;;;;;;;20.63;7.60;;;6.50;99.90;;;;;;4998395;28;20535;-65
2024/01/07 02:06:34;;;;;;;10.03;8.03;;;6.60;99.90;;;;;;4975430;28;20548;-66
2024/01/07 02:09:03;;;;;;;9.37;7.50;;;6.60;99.90;;;;;;4991345;28;20481;-66
2024/01/07 02:11:30;;;;;;;8.27;6.10;;;6.60;99.90;;;;;;4987357;28;21046;-66
2024/01/07 02:13:57;;;;;;;11.50;6.87;;;6.60;99.90;;;;;;4982223;28;20494;-65
2024/01/07 02:16:24;;;;;;;9.07;6.90;;;6.60;99.90;;;;;;4970422;28;20909;-65
2024/01/07 02:18:51;;;;;;;9.70;7.13;;;6.70;99.90;;;;;;4966721;28;21080;-66
2024/01/07 02:21:18;;;;;;;8.27;7.17;;;6.70;99.90;;;;;;4962548;28;21051;-66
2024/01/07 02:23:45;;;;;;;8.70;6.30;;;6.70;99.90;;;;;;4965931;28;20482;-66
2024/01/07 02:26:13;;;;;;;16.50;6.43;;;6.60;99.90;;;;;;4965952;28;20483;-65
2024/01/07 02:28:40;;;;;;;6.53;5.80;;;6.60;99.90;;;;;;4944106;28;20941;-66
2024/01/07 02:31:08;;;;;;;24.23;7.43;;;;;;;;;;4966688;28;20552;-66
2024/01/07 02:33:34;;;;;;;9.80;5.90;;;6.60;99.90;;;;;;4964383;28;20851;-66
2024/01/07 02:36:01;;;;;;;10.40;6.57;;;6.60;99.90;;;;;;4965151;28;20556;-66
2024/01/07 02:38:28;;;;;;;16.63;6.90;;;6.60;99.90;;;;;;4954412;28;20606;-66
2024/01/07 02:40:55;;;;;;;9.63;7.17;;;6.60;99.90;;;;;;4956565;28;20480;-66
2024/01/07 02:43:24;;;;;;;9.60;6.77;;;6.60;99.90;;;;;;4965183;28;21032;-66
2024/01/07 02:45:51;;;;;;;8.70;7.07;;;6.60;99.90;;;;;;4954703;28;20473;-67
2024/01/07 02:48:18;;;;;;;9.67;7.17;;;6.60;99.90;;;;;;4954433;28;20476;-65
2024/01/07 02:50:45;;;;;;;11.00;8.13;;;6.60;99.90;;;;;;4961287;28;20482;-66
2024/01/07 02:53:12;;;;;;;12.90;8.43;;;6.60;99.90;;;;;;4939643;28;20554;-65
2024/01/07 02:55:39;;;;;;;9.53;7.00;;;6.60;99.90;;;;;;4970186;28;20482;-65
2024/01/07 02:58:06;;;;;;;10.80;6.27;;;6.50;99.90;;;;;;4957545;28;20587;-66
2024/01/07 03:00:34;;;;;;;9.27;7.00;;;6.50;99.90;;;;;;4960811;28;20541;-66
2024/01/07 03:03:01;;;;;;;14.90;6.80;;;6.40;99.90;;;;;;4975464;28;20570;-65
2024/01/07 03:05:32;;;;;;;22.93;7.53;;;6.40;99.90;;;;;;4970296;28;20500;-65
2024/01/07 03:07:59;;;;;;;11.43;7.30;;;6.40;99.90;;;;;;4975023;28;20540;-65
2024/01/07 03:10:26;;;;;;;12.53;7.23;;;6.40;99.90;;;;;;4992996;28;21995;-65
2024/01/07 03:12:53;;;;;;;17.43;7.20;;;6.40;99.90;;;;;;4975356;28;20554;-65
2024/01/07 03:15:19;;;;;;;9.70;7.20;;;6.40;99.90;;;;;;4943369;28;20486;-65
2024/01/07 03:17:48;;;;;;;17.17;8.07;;;6.40;99.90;;;;;;4979186;28;20472;-65
2024/01/07 03:20:15;;;;;;;9.60;6.70;;;6.40;99.90;;;;;;4966775;28;20481;-66
2024/01/07 03:22:41;;;;;;;11.13;6.93;;;6.40;99.90;;;;;;4971813;28;20923;-67
2024/01/07 03:25:09;;;;;;;13.97;8.83;;;6.30;99.90;;;;;;4985843;28;20494;-66
2024/01/07 03:27:36;;;;;;;9.27;7.10;;;6.30;99.90;;;;;;4966391;28;20479;-65
2024/01/07 03:30:03;;;;;;;9.20;7.33;;;6.30;99.90;;;;;;4957719;28;20480;-66
2024/01/07 03:32:30;;;;;;;10.93;8.10;;;6.20;99.90;;;;;;4980561;28;20483;-64
2024/01/07 03:34:58;;;;;;;40.47;9.30;;;6.30;99.90;;;;;;4953777;28;20490;-65
2024/01/07 03:37:25;;;;;;;13.33;7.77;;;6.20;99.90;;;;;;4987647;28;20497;-65
2024/01/07 03:39:52;;;;;;;18.73;7.67;;;6.20;99.90;;;;;;4991866;28;20482;-66
2024/01/07 03:42:19;;;;;;;10.07;6.77;;;6.30;99.90;;;;;;4964033;28;20478;-65
2024/01/07 03:44:46;;;;;;;10.73;7.00;;;6.20;99.90;;;;;;4956661;28;20730;-66
2024/01/07 03:47:13;;;;;;;9.90;6.70;;;6.20;99.90;;;;;;4954543;28;20548;-65
2024/01/07 03:49:40;;;;;;;12.57;8.17;;;6.20;99.90;;;;;;4958060;28;20544;-65
2024/01/07 03:52:08;;;;;;;12.97;7.80;;;6.20;99.90;;;;;;4947142;28;20492;-67
2024/01/07 03:54:35;;;;;;;17.70;7.53;;;6.20;99.90;;;;;;4967819;28;20482;-66
2024/01/07 03:57:02;;;;;;;11.53;8.30;;;6.20;99.90;;;;;;4956695;28;20533;-64
2024/01/07 03:59:29;;;;;;;16.23;8.17;;;6.00;99.90;;;;;;4970262;28;20577;-63
2024/01/07 04:01:58;;;;;;;19.90;8.30;;;6.20;99.90;;;;;;4949103;28;20582;-62
2024/01/07 04:04:25;;;;;;;15.50;9.30;;;6.20;99.90;;;;;;4961074;28;20550;-64
2024/01/07 04:06:51;;;;;;;14.23;8.87;;;6.20;99.90;;;;;;4963454;28;20895;-63
2024/01/07 04:09:20;;;;;;;23.17;9.47;;;6.10;99.90;;;;;;4956434;28;20537;-67
2024/01/07 04:11:47;;;;;;;12.93;7.60;;;6.10;99.90;;;;;;4969206;28;20866;-66
2024/01/07 04:14:16;;;;;;;34.83;9.43;;;6.10;99.90;;;;;;4962552;28;20482;-66
2024/01/07 04:16:43;;;;;;;12.00;7.37;;;6.10;99.90;;;;;;4963858;28;20561;-68
2024/01/07 04:19:10;;;;;;;13.47;8.27;;;6.10;99.90;;;;;;4959745;28;20940;-66
2024/01/07 04:21:36;;;;;;;21.83;9.07;;;6.20;99.90;;;;;;4952676;28;20901;-65
2024/01/07 04:24:04;;;;;;;13.20;8.63;;;6.10;99.90;;;;;;4974391;28;20881;-66
2024/01/07 04:26:32;;;;;;;13.37;8.20;;;6.10;99.90;;;;;;4965833;28;20484;-65
2024/01/07 04:28:59;;;;;;;22.93;9.47;;;6.10;99.90;;;;;;4983996;28;20495;-66
2024/01/07 04:31:26;;;;;;;14.37;9.80;;;6.10;99.90;;;;;;4949911;28;20483;-66
2024/01/07 04:33:52;;;;;;;13.90;10.43;;;6.10;99.90;;;;;;4962619;28;20546;-66
2024/01/07 04:36:19;;;;;;;24.40;10.40;;;6.00;99.90;;;;;;4967794;28;20548;-65
2024/01/07 04:38:46;;;;;;;17.40;10.50;;;6.10;99.90;;;;;;4966790;28;20474;-66
2024/01/07 04:41:13;;;;;;;15.17;9.40;;;6.00;99.90;;;;;;4996271;28;20492;-66
2024/01/07 04:43:43;;;;;;;16.67;11.03;;;6.00;99.90;;;;;;4998546;28;20495;-65
2024/01/07 04:46:11;;;;;;;18.67;11.80;;;6.10;99.90;;;;;;4992063;28;20535;-67
2024/01/07 04:48:38;;;;;;;35.83;10.40;;;6.10;99.90;;;;;;4977856;28;21042;-66
2024/01/07 04:51:05;;;;;;;15.30;10.07;;;6.00;99.90;;;;;;4988331;28;20890;-66
2024/01/07 04:53:32;;;;;;;16.20;9.33;;;6.00;99.90;;;;;;4998931;28;21100;-66
2024/01/07 04:55:59;;;;;;;15.90;7.70;;;6.10;99.90;;;;;;4988623;28;20481;-66
2024/01/07 04:58:26;;;;;;;16.53;9.00;;;6.10;99.90;;;;;;4982188;28;20489;-66
2024/01/07 05:00:54;;;;;;;12.23;8.20;;;6.10;99.90;;;;;;4998600;28;20481;-65
2024/01/07 05:03:21;;;;;;;17.63;8.00;;;6.10;99.90;;;;;;4994853;28;20520;-66
2024/01/07 05:05:48;;;;;;;13.73;7.50;;;6.10;99.90;;;;;;4975603;28;20831;-66
2024/01/07 05:08:15;;;;;;;15.37;8.60;;;6.10;99.90;;;;;;4981510;28;20987;-66
2024/01/07 05:10:42;;;;;;;19.70;9.77;;;6.10;99.90;;;;;;4996208;28;20482;-66
2024/01/07 05:13:09;;;;;;;19.43;10.10;;;6.00;99.90;;;;;;5000747;28;20551;-67
2024/01/07 05:15:36;;;;;;;14.50;7.70;;;6.00;99.90;;;;;;5000923;28;20486;-66
2024/01/07 05:18:09;;;;;;;14.00;8.90;;;6.00;99.90;;;;;;4995173;28;20567;-63
2024/01/07 05:20:35;;;;;;;13.27;8.30;;;6.00;99.90;;;;;;4951008;28;20981;-63
2024/01/07 05:23:03;;;;;;;27.63;9.43;;;;;;;;;;4996295;28;20584;-63
2024/01/07 05:25:29;;;;;;;13.33;8.17;;;5.90;99.90;;;;;;4990069;28;20885;-64
2024/01/07 05:27:56;;;;;;;24.00;9.57;;;5.90;99.90;;;;;;5006459;28;20488;-62
2024/01/07 05:30:23;;;;;;;21.70;8.53;;;5.90;99.90;;;;;;5004587;28;21010;-63
2024/01/07 05:32:50;;;;;;;17.50;9.37;;;5.90;99.90;;;;;;4991995;28;20485;-61
2024/01/07 05:35:18;;;;;;;16.10;8.07;;;5.90;99.90;;;;;;4983215;28;20489;-64
2024/01/07 05:37:45;;;;;;;25.10;9.20;;;5.90;99.90;;;;;;4994716;28;20486;-64
2024/01/07 05:40:13;;;;;;;22.70;9.13;;;5.90;99.90;;;;;;5014039;28;20469;-63
2024/01/07 05:42:39;;;;;;;15.80;9.17;;;5.90;99.90;;;;;;4951953;28;21135;-62
2024/01/07 05:45:07;;;;;;;16.77;8.13;;;5.90;99.90;;;;;;4977628;28;20490;-62
2024/01/07 05:47:34;;;;;;;15.60;8.60;;;5.90;99.90;;;;;;4938022;28;20737;-63
2024/01/07 05:50:02;;;;;;;15.87;9.43;;;5.90;99.90;;;;;;4985345;28;20837;-62
2024/01/07 05:52:30;;;;;;;13.60;8.70;;;;;;;;;;4987406;28;20493;-63
2024/01/07 05:54:57;;;;;;;12.80;7.40;;;5.90;99.90;;;;;;4993387;28;20536;-63
2024/01/07 05:57:24;;;;;;;34.57;9.17;;;5.90;99.90;;;;;;4990231;28;20492;-63
2024/01/07 05:59:51;;;;;;;22.50;8.00;;;5.90;99.90;;;;;;4981698;28;20481;-66
2024/01/07 06:02:18;;;;;;;20.93;8.07;;;5.90;99.90;;;;;;4996968;28;20872;-66
2024/01/07 06:04:45;;;;;;;19.13;7.60;;;6.00;99.90;;;;;;4993050;28;20482;-65
2024/01/07 06:07:12;;;;;;;11.80;7.23;;;6.00;99.90;;;;;;4988113;28;20494;-66
2024/01/07 06:09:40;;;;;;;14.37;7.57;;;5.90;99.90;;;;;;4979416;28;20724;-66
2024/01/07 06:12:08;;;;;;;17.97;7.67;;;5.90;99.90;;;;;;4966618;28;20490;-67
2024/01/07 06:14:35;;;;;;;14.63;7.30;;;6.00;99.90;;;;;;4951140;28;20491;-65
2024/01/07 06:17:02;;;;;;;9.60;6.43;;;6.00;99.90;;;;;;4954725;28;20474;-66
2024/01/07 06:19:30;;;;;;;15.27;8.00;;;6.00;99.90;;;;;;4961627;28;20510;-67
2024/01/07 06:21:57;;;;;;;16.53;8.97;;;6.00;99.90;;;;;;4976275;28;20533;-66
2024/01/07 06:24:24;;;;;;;15.27;9.20;;;6.00;99.90;;;;;;4982391;28;20486;-65
2024/01/07 06:26:52;;;;;;;14.80;7.40;;;6.00;99.90;;;;;;4976865;28;20908;-67
2024/01/07 06:29:19;;;;;;;11.23;7.10;;;5.90;99.90;;;;;;4970626;28;20549;-63
2024/01/07 06:31:46;;;;;;;48.67;9.83;;;6.00;99.90;;;;;;4950671;28;20495;-63
2024/01/07 06:34:14;;;;;;;14.03;7.50;;;6.00;99.90;;;;;;4959262;28;21715;-64
2024/01/07 06:36:42;;;;;;;19.10;6.93;;;6.00;99.90;;;;;;4961911;28;20986;-63
2024/01/07 06:39:09;;;;;;;21.70;8.73;;;5.90;99.90;;;;;;4940553;28;20494;-64
2024/01/07 06:41:36;;;;;;;24.67;7.67;;;5.90;99.90;;;;;;4980597;28;20479;-63
2024/01/07 06:44:04;;;;;;;12.57;8.07;;;6.00;99.90;;;;;;4961825;28;20495;-63
2024/01/07 06:46:34;;;;;;;39.67;8.83;;;6.00;99.90;;;;;;4949493;28;20843;-63
2024/01/07 06:49:00;;;;;;;13.77;6.97;;;6.00;99.90;;;;;;4992577;28;20478;-63
2024/01/07 06:51:27;;;;;;;12.50;7.20;;;6.00;99.90;;;;;;4976647;28;20512;-64
2024/01/07 06:53:54;;;;;;;19.93;9.20;;;6.00;99.90;;;;;;4950083;28;20526;-64
2024/01/07 06:56:21;;;;;;;10.70;6.73;;;6.00;99.90;;;;;;4958269;28;20870;-62
2024/01/07 06:58:50;;;;;;;9.97;6.80;;;6.10;99.90;;;;;;4979560;28;21077;-64
2024/01/07 07:01:22;;;;;;;12.37;7.80;;;;;;;;;;4972976;28;20485;-63
2024/01/07 07:03:49;;;;;;;13.50;7.83;;;6.00;99.90;;;;;;4969531;28;20491;-63
2024/01/07 07:06:16;;;;;;;38.77;8.63;;;6.00;99.90;;;;;;4959016;28;20864;-62
2024/01/07 07:08:42;;;;;;;11.10;5.67;;;6.00;99.90;;;;;;4957583;28;20561;-64
2024/01/07 07:11:09;;;;;;;25.07;8.07;;;6.00;99.90;;;;;;4971531;28;20471;-64
2024/01/07 07:13:37;;;;;;;21.20;9.00;;;6.00;99.90;;;;;;4951930;28;20487;-63
2024/01/07 07:16:04;;;;;;;17.10;10.57;;;5.90;99.90;;;;;;4959727;28;20482;-63
2024/01/07 07:18:32;;;;;;;12.53;8.20;;;5.90;99.90;;;;;;4956955;28;20490;-63
2024/01/07 07:20:59;;;;;;;21.70;8.90;;;6.00;99.90;;;;;;4992744;28;20466;-63
2024/01/07 07:23:26;;;;;;;13.33;7.77;;;5.90;99.90;;;;;;4996636;28;20489;-64
2024/01/07 07:25:53;;;;;;;16.43;7.20;;;5.90;99.90;;;;;;4976107;28;20921;-63
2024/01/07 07:28:20;;;;;;;30.23;8.90;;;5.90;99.90;;;;;;4943674;28;20886;-63
2024/01/07 07:30:47;;;;;;;18.50;9.60;;;5.90;99.90;;;;;;4974491;28;20837;-63
2024/01/07 07:33:18;;;;;;;16.90;8.30;;;5.90;99.90;;;;;;4959853;28;20462;-63
2024/01/07 07:35:46;;;;;;;16.57;8.73;;;5.90;99.90;;;;;;4973715;28;20538;-63
2024/01/07 07:38:14;;;;;;;17.07;10.00;;;5.90;99.90;;;;;;4933558;28;20640;-63
2024/01/07 07:40:41;;;;;;;36.07;8.40;;;5.90;99.90;;;;;;4966096;28;20985;-63
2024/01/07 07:43:09;;;;;;;12.93;8.57;;;5.90;99.90;;;;;;4949821;28;20487;-64
2024/01/07 07:45:36;;;;;;;22.47;8.20;;;5.80;99.90;;;;;;4967075;28;20494;-64
2024/01/07 07:48:02;;;;;;;33.23;9.37;;;5.90;99.90;;;;;;4965581;28;20994;-63
2024/01/07 07:50:29;;;;;;;9.43;6.57;;;5.90;99.90;;;;;;4936537;28;20514;-63
2024/01/07 07:52:58;;;;;;;10.00;6.27;;;5.90;99.90;;;;;;4980591;28;20490;-63
2024/01/07 07:55:25;;;;;;;18.23;7.50;;;;;;;;;;4974156;28;20474;-63
2024/01/07 07:57:52;;;;;;;12.20;7.33;;;5.90;99.90;;;;;;4940558;28;20490;-62
2024/01/07 08:00:19;;;;;;;11.40;7.70;;;5.90;99.90;;;;;;4964186;28;20948;-63
2024/01/07 08:02:46;;;;;;;20.43;8.63;;;5.90;99.90;;;;;;4948818;28;20480;-63
2024/01/07 08:05:13;;;;;;;10.50;5.60;;;5.80;99.90;;;;;;4973537;28;20541;-62
2024/01/07 08:07:40;;;;;;;10.10;7.20;;;5.80;99.90;;;;;;4964961;28;20480;-63
2024/01/07 08:10:10;;;;;;;15.47;9.67;;;;;;;;;;4946115;28;20499;-63
2024/01/07 08:12:37;;;;;;;13.47;7.70;;;5.80;99.90;;;;;;4987835;28;20485;-64
2024/01/07 08:15:05;;;;;;;42.03;10.70;;;5.70;99.90;;;;;;4987772;28;20489;-64
2024/01/07 08:17:32;;;;;;;13.10;7.73;;;5.80;99.90;;;;;;4942242;28;20483;-64
2024/01/07 08:20:01;;;;;;;26.73;12.00;;;5.80;99.90;;;;;;4982899;28;20901;-67
2024/01/07 08:22:27;;;;;;;20.83;6.57;;;5.70;99.90;;;;;;4992582;28;20681;-66
2024/01/07 08:24:54;;;;;;;13.83;7.90;;;5.70;99.90;;;;;;4979281;28;20551;-67
2024/01/07 08:27:23;;;;;;;11.83;8.60;;;5.70;99.90;;;;;;4970069;28;20492;-66
2024/01/07 08:29:49;;;;;;;20.53;8.23;;;5.70;99.90;;;;;;4939907;28;20493;-66
2024/01/07 08:32:16;;;;;;;13.63;8.53;;;5.80;99.90;;;;;;4970167;28;20486;-66
2024/01/07 08:34:43;;;;;;;13.43;9.20;;;5.80;99.90;;;;;;4972366;28;20513;-66
2024/01/07 08:37:10;;;;;;;25.43;10.80;;;5.80;99.90;;;;;;4966539;28;20486;-67
2024/01/07 08:39:37;;;;;;;16.67;8.60;;;5.80;99.90;;;;;;4906911;28;20526;-66
2024/01/07 08:42:05;;;;;;;14.43;7.63;;;5.70;99.90;;;;;;4968511;28;20532;-66
2024/01/07 08:44:33;;;;;;;14.80;9.80;;;5.70;99.90;;;;;;4954262;28;20925;-67
2024/01/07 08:47:00;;;;;;;14.23;9.70;;;5.80;99.90;;;;;;4975794;28;20490;-66
2024/01/07 08:49:29;;;;;;;28.07;9.10;;;5.80;99.90;;;;;;4954633;28;20752;-66
2024/01/07 08:51:56;;;;;;;22.30;10.53;;;5.90;99.90;;;;;;4932583;28;20570;-66
2024/01/07 08:54:23;;;;;;;26.63;12.27;;;5.90;99.90;;;;;;4941943;28;21128;-66
2024/01/07 08:56:50;;;;;;;22.20;9.30;;;5.90;99.90;;;;;;4987453;28;20545;-66
2024/01/07 08:59:17;;;;;;;13.37;8.10;;;5.90;99.90;;;;;;4972019;28;20502;-66
2024/01/07 09:01:45;;;;;;;14.87;8.80;;;5.80;99.90;;;;;;4958062;28;21042;-67
2024/01/07 09:04:12;;;;;;;22.30;8.30;;;5.90;99.90;;;;;;4960412;28;20482;-66
2024/01/07 09:06:40;;;;;;;17.07;8.60;;;5.90;99.90;;;;;;4972834;28;20545;-67
2024/01/07 09:09:08;;;;;;;17.20;8.83;;;5.90;99.90;;;;;;4961509;28;20862;-66
2024/01/07 09:11:36;;;;;;;24.33;9.77;;;5.90;99.90;;;;;;4974713;28;20501;-66
2024/01/07 09:14:04;;;;;;;21.73;10.17;;;5.90;99.90;;;;;;4979598;28;21280;-67
2024/01/07 09:16:31;;;;;;;18.23;10.37;;;5.90;99.90;;;;;;4955430;28;21041;-66
2024/01/07 09:18:59;;;;;;;12.80;8.50;;;5.90;99.90;;;;;;4961989;28;21063;-68
2024/01/07 09:21:26;;;;;;;13.57;8.60;;;5.90;99.90;;;;;;4957300;28;20483;-66
2024/01/07 09:23:53;;;;;;;30.50;10.13;;;5.90;99.90;;;;;;4951983;28;20934;-67
2024/01/07 09:26:20;;;;;;;14.17;9.87;;;5.90;99.90;;;;;;4985404;28;20750;-68
2024/01/07 09:28:47;;;;;;;22.13;8.53;;;5.90;99.90;;;;;;4990187;28;21069;-64
2024/01/07 09:31:15;;;;;;;20.67;8.60;;;6.00;99.90;;;;;;4998523;28;20469;-64
2024/01/07 09:33:42;;;;;;;11.73;7.43;;;5.90;99.90;;;;;;4940389;28;20573;-63
2024/01/07 09:36:10;;;;;;;14.10;9.00;;;5.90;99.90;;;;;;4966497;28;20510;-63
2024/01/07 09:38:37;;;;;;;17.73;7.47;;;6.00;99.90;;;;;;4950298;28;20512;-63
2024/01/07 09:41:04;;;;;;;11.60;8.33;;;6.00;99.90;;;;;;4960004;28;20479;-63
2024/01/07 09:43:31;;;;;;;12.90;7.57;;;6.00;99.90;;;;;;4942997;28;20586;-62
2024/01/07 09:45:59;;;;;;;13.83;8.67;;;6.00;99.90;;;;;;4985793;28;20474;-64
2024/01/07 09:48:26;;;;;;;16.20;8.40;;;6.00;99.90;;;;;;4967996;28;20481;-64
2024/01/07 09:50:53;;;;;;;13.60;9.90;;;6.00;99.90;;;;;;4960817;28;20553;-64
2024/01/07 09:53:25;;;;;;;14.37;8.13;;;6.10;99.90;;;;;;4978170;28;20533;-63
2024/01/07 09:56:07;;;;;;;15.93;7.47;;;6.00;99.90;;;;;;4965867;28;20473;-63
2024/01/07 09:58:34;;;;;;;27.03;7.70;;;6.00;99.90;;;;;;4979260;28;20510;-67
2024/01/07 10:01:01;;;;;;;11.87;7.03;;;6.10;99.90;;;;;;4968777;28;20549;-67
2024/01/07 10:03:28;;;;;;;11.70;7.93;;;6.00;99.90;;;;;;4972249;28;20486;-68
2024/01/07 10:05:55;;;;;;;14.87;7.20;;;6.00;99.90;;;;;;4958258;28;20507;-67
2024/01/07 10:08:23;;;;;;;37.73;8.37;;;6.00;99.90;;;;;;4963623;28;20482;-66
2024/01/07 10:10:50;;;;;;;11.00;7.27;;;6.10;99.90;;;;;;4912168;28;20476;-66
2024/01/07 10:13:17;;;;;;;9.30;6.93;;;6.10;99.90;;;;;;4968008;28;20487;-66
2024/01/07 10:15:44;;;;;;;9.10;6.80;;;6.10;99.90;;;;;;4968333;28;20489;-67
2024/01/07 10:18:11;;;;;;;7.33;6.33;;;6.00;99.90;;;;;;4966348;28;21211;-68
2024/01/07 10:20:38;;;;;;;15.60;10.00;;;6.00;99.90;;;;;;4961632;28;20482;-68
2024/01/07 10:23:07;;;;;;;10.83;8.37;;;6.10;99.90;;;;;;4963336;28;21043;-67
2024/01/07 10:25:37;;;;;;;19.33;9.33;;;6.10;99.90;;;;;;4963268;28;20520;-68
2024/01/07 10:28:04;;;;;;;30.13;9.93;;;6.00;99.90;;;;;;4960306;28;20501;-67
2024/01/07 10:30:31;;;;;;;10.13;6.23;;;6.00;99.90;;;;;;4971351;28;20475;-67
2024/01/07 10:32:59;;;;;;;21.03;6.43;;;6.00;99.90;;;;;;4976258;28;20530;-68
2024/01/07 10:35:33;;;;;;;15.90;7.53;;;6.00;99.90;;;;;;4969335;28;20960;-66
2024/01/07 10:38:01;;;;;;;27.37;12.43;;;6.10;99.90;;;;;;4954546;28;20878;-67
2024/01/07 10:40:29;;;;;;;19.77;8.70;;;6.00;99.90;;;;;;4964682;28;20479;-63
2024/01/07 10:42:59;;;;;;;19.87;9.43;;;6.10;99.90;;;;;;4974599;28;20479;-63
2024/01/07 10:45:25;;;;;;;10.23;6.57;;;6.00;99.90;;;;;;4936932;28;20478;-64
2024/01/07 10:47:58;;;;;;;27.70;6.90;;;6.00;99.90;;;;;;4978992;28;20903;-63
2024/01/07 10:50:27;;;;;;;12.30;7.67;;;6.00;99.90;;;;;;4969403;28;20476;-62
2024/01/07 10:53:04;;;;;;;45.53;19.30;;;6.00;99.90;;;;;;5005832;28;20912;-64
2024/01/07 10:55:37;;;;;;;16.20;10.80;;;6.00;99.90;;;;;;4978790;28;20500;-63
2024/01/07 10:58:06;;;;;;;16.20;10.23;;;6.00;99.90;;;;;;4969038;28;20966;-63
2024/01/07 11:00:34;;;;;;;49.30;19.13;;;6.10;99.90;;;;;;4962368;28;20537;-63
2024/01/07 11:03:14;;;;;;;10.20;7.20;;;6.10;99.90;;;;;;4953185;28;20483;-64
2024/01/07 11:05:49;;;;;;;17.10;8.90;;;6.20;99.90;;;;;;4951604;28;20533;-63
2024/01/07 11:08:25;;;;;;;32.40;13.37;;;6.20;99.90;;;;;;4967188;28;20508;-64
2024/01/07 11:10:58;;;;;;;10.50;8.00;;;6.20;99.90;;;;;;4968744;28;20672;-64
2024/01/07 11:13:37;;;;;;;12.60;7.90;;;6.20;99.90;;;;;;4969852;28;20567;-65
2024/01/07 11:16:05;;;;;;;21.77;9.03;;;6.20;99.90;;;;;;4957665;28;20510;-63
2024/01/07 11:18:34;;;;;;;6.40;5.40;;;6.20;99.90;;;;;;4967992;28;20952;-64
2024/01/07 11:21:03;;;;;;;41.37;8.77;;;6.20;99.90;;;;;;4974044;28;20884;-64
2024/01/07 11:23:32;;;;;;;9.07;6.70;;;6.20;99.90;;;;;;4968359;28;20940;-64
2024/01/07 11:26:00;;;;;;;7.57;6.53;;;6.20;99.90;;;;;;4987437;28;21020;-64
2024/01/07 11:28:47;;;;;;;11.00;4.93;;;6.20;99.90;;;;;;4994745;28;20754;-64
2024/01/07 11:31:15;;;;;;;4.40;4.00;;;6.10;99.90;;;;;;4985260;28;20490;-63
2024/01/07 11:33:44;;;;;;;7.23;5.30;;;6.10;99.90;;;;;;4971033;28;20479;-63
2024/01/07 11:36:12;;;;;;;15.30;5.90;;;6.20;99.90;;;;;;4984213;28;21214;-62
2024/01/07 11:38:42;;;;;;;7.87;5.37;;;6.30;99.90;;;;;;4971416;28;20531;-63
2024/01/07 11:41:11;;;;;;;7.90;6.57;;;6.30;99.90;;;;;;5001223;28;21000;-63
2024/01/07 11:43:39;;;;;;;8.67;5.17;;;6.30;99.90;;;;;;4989954;28;20929;-64
2024/01/07 11:46:07;;;;;;;6.97;4.00;;;6.30;99.90;;;;;;4994860;28;20524;-63
2024/01/07 11:48:34;;;;;;;32.87;7.07;;;6.30;99.90;;;;;;4996278;28;20752;-67
2024/01/07 11:51:01;;;;;;;7.70;6.50;;;6.30;99.90;;;;;;4987386;28;20492;-66
2024/01/07 11:53:29;;;;;;;7.80;6.00;;;6.30;99.90;;;;;;4991138;28;21000;-67
2024/01/07 11:55:56;;;;;;;10.60;7.20;;;6.20;99.90;;;;;;4992877;28;20842;-66
2024/01/07 11:58:23;;;;;;;16.60;9.17;;;6.20;99.90;;;;;;4989111;28;20481;-67
2024/01/07 12:00:50;;;;;;;12.50;7.80;;;6.30;99.90;;;;;;4986927;28;20936;-66
2024/01/07 12:03:18;;;;;;;13.90;6.73;;;6.30;99.90;;;;;;4997958;28;20837;-66
2024/01/07 12:05:47;;;;;;;9.43;6.73;;;6.20;99.90;;;;;;4982403;28;20494;-66
2024/01/07 12:08:15;;;;;;;10.87;7.00;;;6.20;99.90;;;;;;4995254;28;20556;-67
2024/01/07 12:10:42;;;;;;;8.60;6.47;;;6.30;99.90;;;;;;4980115;28;20509;-67
2024/01/07 12:13:10;;;;;;;7.40;5.90;;;6.30;99.90;;;;;;4965605;28;20543;-67
2024/01/07 12:15:38;;;;;;;9.17;5.77;;;6.30;99.90;;;;;;4951974;28;20538;-67
2024/01/07 12:18:06;;;;;;;11.63;5.33;;;6.20;99.90;;;;;;4990698;28;20591;-66
2024/01/07 12:20:34;;;;;;;10.50;7.20;;;6.20;99.90;;;;;;4972869;28;20773;-63
2024/01/07 12:23:07;;;;;;;34.17;6.27;;;6.10;99.90;;;;;;4972738;28;20497;-65
2024/01/07 12:25:34;;;;;;;13.33;7.20;;;6.10;99.90;;;;;;4985576;28;20881;-64
2024/01/07 12:28:01;;;;;;;7.67;4.97;;;6.10;99.90;;;;;;4983787;28;20525;-63
2024/01/07 12:30:30;;;;;;;17.23;6.77;;;6.10;99.90;;;;;;4982883;28;20731;-63
2024/01/07 12:32:58;;;;;;;32.47;7.13;;;6.10;99.90;;;;;;4975715;28;20478;-64
2024/01/07 12:35:26;;;;;;;11.23;7.60;;;6.10;99.90;;;;;;4948778;28;20474;-63
2024/01/07 12:37:56;;;;;;;10.70;7.33;;;6.10;99.90;;;;;;4991886;28;20790;-63
2024/01/07 12:40:24;;;;;;;10.87;8.40;;;6.10;99.90;;;;;;4971038;28;20509;-63
2024/01/07 12:42:51;;;;;;;11.20;7.63;;;6.10;99.90;;;;;;4988166;28;20481;-64
2024/01/07 12:45:18;;;;;;;12.67;4.70;;;6.10;99.90;;;;;;4984584;28;20481;-63
2024/01/07 12:47:46;;;;;;;7.53;4.60;;;6.00;99.90;;;;;;4993235;28;20486;-63
2024/01/07 12:50:15;;;;;;;11.20;6.90;;;5.90;99.90;;;;;;4985147;28;20923;-63
2024/01/07 12:52:42;;;;;;;11.73;3.97;;;5.90;99.90;;;;;;4990234;28;20913;-62